sensor_id;sensor_type;location;lat;lon;timestamp;temperature;humidity
73509;SHT30;61750;55.036;73.312;2023-01-28T00:02:26;-7.41;82.18
73509;SHT30;61750;55.036;73.312;2023-01-28T00:04:52;-7.38;82.29
73509;SHT30;61750;55.036;73.312;2023-01-28T00:07:26;-7.38;82.20
73509;SHT30;61750;55.036;73.312;2023-01-28T00:09:52;-7.34;82.25
73509;SHT30;61750;55.036;73.312;2023-01-28T00:12:26;-7.35;82.10
73509;SHT30;61750;55.036;73.312;2023-01-28T00:14:54;-7.32;82.23
73509;SHT30;61750;55.036;73.312;2023-01-28T00:17:29;-7.24;82.29
73509;SHT30;61750;55.036;73.312;2023-01-28T00:19:55;-7.24;82.16
73509;SHT30;61750;55.036;73.312;2023-01-28T00:22:26;-7.21;82.00
73509;SHT30;61750;55.036;73.312;2023-01-28T00:25:03;-7.27;81.98
73509;SHT30;61750;55.036;73.312;2023-01-28T00:27:29;-7.25;82.08
73509;SHT30;61750;55.036;73.312;2023-01-28T00:29:56;-7.28;81.96
73509;SHT30;61750;55.036;73.312;2023-01-28T00:32:26;-7.31;82.03
73509;SHT30;61750;55.036;73.312;2023-01-28T00:34:53;-7.34;82.09
73509;SHT30;61750;55.036;73.312;2023-01-28T00:37:26;-7.34;82.09
73509;SHT30;61750;55.036;73.312;2023-01-28T00:40:02;-7.30;82.25
73509;SHT30;61750;55.036;73.312;2023-01-28T00:42:28;-7.31;82.13
73509;SHT30;61750;55.036;73.312;2023-01-28T00:45:05;-7.30;82.06
73509;SHT30;61750;55.036;73.312;2023-01-28T00:47:37;-7.31;82.04
73509;SHT30;61750;55.036;73.312;2023-01-28T00:50:08;-7.27;81.82
73509;SHT30;61750;55.036;73.312;2023-01-28T00:52:34;-7.31;81.40
73509;SHT30;61750;55.036;73.312;2023-01-28T00:55:01;-7.31;81.26
73509;SHT30;61750;55.036;73.312;2023-01-28T00:57:27;-7.35;81.02
73509;SHT30;61750;55.036;73.312;2023-01-28T00:59:53;-7.42;80.97
73509;SHT30;61750;55.036;73.312;2023-01-28T01:02:26;-7.48;80.83
73509;SHT30;61750;55.036;73.312;2023-01-28T01:04:52;-7.54;80.70
73509;SHT30;61750;55.036;73.312;2023-01-28T01:07:31;-7.56;80.60
73509;SHT30;61750;55.036;73.312;2023-01-28T01:10:00;-7.62;80.52
73509;SHT30;61750;55.036;73.312;2023-01-28T01:12:27;-7.65;80.47
73509;SHT30;61750;55.036;73.312;2023-01-28T01:14:53;-7.72;80.45
73509;SHT30;61750;55.036;73.312;2023-01-28T01:17:29;-7.78;80.40
73509;SHT30;61750;55.036;73.312;2023-01-28T01:20:08;-7.82;80.37
73509;SHT30;61750;55.036;73.312;2023-01-28T01:22:34;-7.82;80.31
73509;SHT30;61750;55.036;73.312;2023-01-28T01:25:02;-7.82;80.13
73509;SHT30;61750;55.036;73.312;2023-01-28T01:27:29;-7.82;80.09
73509;SHT30;61750;55.036;73.312;2023-01-28T01:29:57;-7.81;79.90
73509;SHT30;61750;55.036;73.312;2023-01-28T01:32:30;-7.85;79.69
73509;SHT30;61750;55.036;73.312;2023-01-28T01:35:07;-7.87;79.64
73509;SHT30;61750;55.036;73.312;2023-01-28T01:37:42;-7.92;79.58
73509;SHT30;61750;55.036;73.312;2023-01-28T01:40:09;-7.92;79.67
73509;SHT30;61750;55.036;73.312;2023-01-28T01:42:40;-7.89;79.61
73509;SHT30;61750;55.036;73.312;2023-01-28T01:45:10;-7.83;79.51
73509;SHT30;61750;55.036;73.312;2023-01-28T01:47:57;-7.79;79.43
73509;SHT30;61750;55.036;73.312;2023-01-28T01:50:56;-7.68;79.21
73509;SHT30;61750;55.036;73.312;2023-01-28T01:53:21;-7.63;79.01
73509;SHT30;61750;55.036;73.312;2023-01-28T01:55:48;-7.55;78.86
73509;SHT30;61750;55.036;73.312;2023-01-28T01:58:21;-7.49;78.65
73509;SHT30;61750;55.036;73.312;2023-01-28T02:00:49;-7.44;78.47
73509;SHT30;61750;55.036;73.312;2023-01-28T02:03:22;-7.38;78.44
73509;SHT30;61750;55.036;73.312;2023-01-28T02:05:50;-7.32;78.32
73509;SHT30;61750;55.036;73.312;2023-01-28T02:08:16;-7.32;78.16
73509;SHT30;61750;55.036;73.312;2023-01-28T02:10:49;-7.31;78.23
73509;SHT30;61750;55.036;73.312;2023-01-28T02:13:25;-7.24;78.26
73509;SHT30;61750;55.036;73.312;2023-01-28T02:15:52;-7.21;78.24
73509;SHT30;61750;55.036;73.312;2023-01-28T02:18:28;-7.20;78.18
73509;SHT30;61750;55.036;73.312;2023-01-28T02:23:43;-7.08;78.06
73509;SHT30;61750;55.036;73.312;2023-01-28T02:28:49;-7.03;77.89
73509;SHT30;61750;55.036;73.312;2023-01-28T02:31:51;-6.99;77.89
73509;SHT30;61750;55.036;73.312;2023-01-28T02:34:11;-7.00;77.80
73509;SHT30;61750;55.036;73.312;2023-01-28T02:36:41;-6.99;77.86
73509;SHT30;61750;55.036;73.312;2023-01-28T02:39:32;-6.96;77.75
73509;SHT30;61750;55.036;73.312;2023-01-28T02:42:28;-6.90;77.74
73509;SHT30;61750;55.036;73.312;2023-01-28T02:44:54;-6.93;77.85
73509;SHT30;61750;55.036;73.312;2023-01-28T02:47:26;-6.89;77.72
73509;SHT30;61750;55.036;73.312;2023-01-28T02:50:16;-6.86;77.49
73509;SHT30;61750;55.036;73.312;2023-01-28T02:52:47;-6.84;77.44
73509;SHT30;61750;55.036;73.312;2023-01-28T02:55:38;-6.84;77.27
73509;SHT30;61750;55.036;73.312;2023-01-28T02:58:17;-6.79;77.40
73509;SHT30;61750;55.036;73.312;2023-01-28T03:06:07;-6.79;76.79
73509;SHT30;61750;55.036;73.312;2023-01-28T03:08:49;-6.73;76.68
73509;SHT30;61750;55.036;73.312;2023-01-28T03:11:45;-6.80;76.36
73509;SHT30;61750;55.036;73.312;2023-01-28T03:14:36;-6.81;76.10
73509;SHT30;61750;55.036;73.312;2023-01-28T03:17:27;-6.83;76.07
73509;SHT30;61750;55.036;73.312;2023-01-28T03:20:13;-6.89;75.79
73509;SHT30;61750;55.036;73.312;2023-01-28T03:22:59;-6.89;75.66
73509;SHT30;61750;55.036;73.312;2023-01-28T03:25:45;-6.86;75.70
73509;SHT30;61750;55.036;73.312;2023-01-28T03:28:37;-6.89;75.20
73509;SHT30;61750;55.036;73.312;2023-01-28T03:31:22;-6.87;75.14
73509;SHT30;61750;55.036;73.312;2023-01-28T03:34:07;-6.83;74.98
73509;SHT30;61750;55.036;73.312;2023-01-28T03:37:26;-6.75;74.64
73509;SHT30;61750;55.036;73.312;2023-01-28T03:40:15;-6.73;74.15
73509;SHT30;61750;55.036;73.312;2023-01-28T03:42:43;-6.70;74.06
73509;SHT30;61750;55.036;73.312;2023-01-28T03:45:40;-6.69;73.82
73509;SHT30;61750;55.036;73.312;2023-01-28T03:48:18;-6.60;73.93
73509;SHT30;61750;55.036;73.312;2023-01-28T03:50:45;-6.56;73.45
73509;SHT30;61750;55.036;73.312;2023-01-28T03:53:15;-6.62;73.37
73509;SHT30;61750;55.036;73.312;2023-01-28T03:55:47;-6.52;73.45
73509;SHT30;61750;55.036;73.312;2023-01-28T03:58:13;-6.47;73.23
73509;SHT30;61750;55.036;73.312;2023-01-28T04:00:40;-6.45;73.28
73509;SHT30;61750;55.036;73.312;2023-01-28T04:03:09;-6.47;72.98
73509;SHT30;61750;55.036;73.312;2023-01-28T04:06:00;-6.43;73.21
73509;SHT30;61750;55.036;73.312;2023-01-28T04:08:49;-6.46;73.00
73509;SHT30;61750;55.036;73.312;2023-01-28T04:11:46;-6.50;72.94
73509;SHT30;61750;55.036;73.312;2023-01-28T04:14:17;-6.59;72.90
73509;SHT30;61750;55.036;73.312;2023-01-28T04:17:26;-6.60;73.18
73509;SHT30;61750;55.036;73.312;2023-01-28T04:19:52;-6.62;73.14
73509;SHT30;61750;55.036;73.312;2023-01-28T04:22:29;-6.70;73.09
73509;SHT30;61750;55.036;73.312;2023-01-28T04:24:56;-6.77;73.30
73509;SHT30;61750;55.036;73.312;2023-01-28T04:27:22;-6.80;73.46
73509;SHT30;61750;55.036;73.312;2023-01-28T04:29:49;-6.84;73.49
73509;SHT30;61750;55.036;73.312;2023-01-28T04:32:45;-6.84;73.57
73509;SHT30;61750;55.036;73.312;2023-01-28T04:35:29;-6.89;73.55
73509;SHT30;61750;55.036;73.312;2023-01-28T04:38:04;-6.89;73.76
73509;SHT30;61750;55.036;73.312;2023-01-28T04:40:53;-6.90;73.62
73509;SHT30;61750;55.036;73.312;2023-01-28T04:43:28;-6.93;73.65
73509;SHT30;61750;55.036;73.312;2023-01-28T04:46:26;-6.96;73.75
73509;SHT30;61750;55.036;73.312;2023-01-28T04:49:29;-7.05;73.84
73509;SHT30;61750;55.036;73.312;2023-01-28T04:52:26;-7.07;74.21
73509;SHT30;61750;55.036;73.312;2023-01-28T04:55:04;-7.14;74.20
73509;SHT30;61750;55.036;73.312;2023-01-28T04:57:30;-7.18;74.33
73509;SHT30;61750;55.036;73.312;2023-01-28T04:59:57;-7.25;74.45
73509;SHT30;61750;55.036;73.312;2023-01-28T05:02:26;-7.27;74.64
73509;SHT30;61750;55.036;73.312;2023-01-28T05:04:52;-7.31;74.69
73509;SHT30;61750;55.036;73.312;2023-01-28T05:07:35;-7.34;74.89
73509;SHT30;61750;55.036;73.312;2023-01-28T05:10:03;-7.36;74.88
73509;SHT30;61750;55.036;73.312;2023-01-28T05:12:29;-7.36;75.01
73509;SHT30;61750;55.036;73.312;2023-01-28T05:15:01;-7.38;75.07
73509;SHT30;61750;55.036;73.312;2023-01-28T05:17:27;-7.38;74.96
73509;SHT30;61750;55.036;73.312;2023-01-28T05:19:53;-7.38;75.05
73509;SHT30;61750;55.036;73.312;2023-01-28T05:22:35;-7.39;75.01
73509;SHT30;61750;55.036;73.312;2023-01-28T05:25:17;-7.41;75.05
73509;SHT30;61750;55.036;73.312;2023-01-28T05:27:53;-7.44;74.93
73509;SHT30;61750;55.036;73.312;2023-01-28T05:30:19;-7.36;74.96
73509;SHT30;61750;55.036;73.312;2023-01-28T05:32:46;-7.36;74.97
73509;SHT30;61750;55.036;73.312;2023-01-28T05:35:14;-7.34;74.78
73509;SHT30;61750;55.036;73.312;2023-01-28T05:37:46;-7.30;74.82
73509;SHT30;61750;55.036;73.312;2023-01-28T05:40:15;-7.28;74.57
73509;SHT30;61750;55.036;73.312;2023-01-28T05:42:42;-7.25;74.66
73509;SHT30;61750;55.036;73.312;2023-01-28T05:45:25;-7.21;74.61
73509;SHT30;61750;55.036;73.312;2023-01-28T05:48:07;-7.20;74.43
73509;SHT30;61750;55.036;73.312;2023-01-28T05:51:03;-7.14;74.32
73509;SHT30;61750;55.036;73.312;2023-01-28T05:53:37;-7.20;74.24
73509;SHT30;61750;55.036;73.312;2023-01-28T05:56:14;-7.17;74.31
73509;SHT30;61750;55.036;73.312;2023-01-28T05:58:41;-7.18;74.27
73509;SHT30;61750;55.036;73.312;2023-01-28T06:01:08;-7.20;74.37
73509;SHT30;61750;55.036;73.312;2023-01-28T06:03:41;-7.17;74.42
73509;SHT30;61750;55.036;73.312;2023-01-28T06:06:12;-7.18;74.43
73509;SHT30;61750;55.036;73.312;2023-01-28T06:08:39;-7.18;74.45
73509;SHT30;61750;55.036;73.312;2023-01-28T06:11:06;-7.14;74.41
73509;SHT30;61750;55.036;73.312;2023-01-28T06:13:33;-7.14;74.36
73509;SHT30;61750;55.036;73.312;2023-01-28T06:17:00;-7.11;74.33
73509;SHT30;61750;55.036;73.312;2023-01-28T06:21:08;-7.08;74.26
73509;SHT30;61750;55.036;73.312;2023-01-28T06:36:47;-6.77;73.38
73509;SHT30;61750;55.036;73.312;2023-01-28T06:39:31;-6.73;73.23
73509;SHT30;61750;55.036;73.312;2023-01-28T06:42:26;-6.70;72.95
73509;SHT30;61750;55.036;73.312;2023-01-28T06:44:54;-6.69;73.00
73509;SHT30;61750;55.036;73.312;2023-01-28T06:47:26;-6.66;72.95
73509;SHT30;61750;55.036;73.312;2023-01-28T06:49:58;-6.66;72.85
73509;SHT30;61750;55.036;73.312;2023-01-28T06:52:26;-6.67;72.81
73509;SHT30;61750;55.036;73.312;2023-01-28T06:54:53;-6.65;72.86
73509;SHT30;61750;55.036;73.312;2023-01-28T06:57:25;-6.65;72.78
73509;SHT30;61750;55.036;73.312;2023-01-28T06:59:51;-6.62;72.70
73509;SHT30;61750;55.036;73.312;2023-01-28T07:02:40;-6.57;72.54
73509;SHT30;61750;55.036;73.312;2023-01-28T07:05:16;-6.53;72.33
73509;SHT30;61750;55.036;73.312;2023-01-28T07:07:42;-6.47;72.18
73509;SHT30;61750;55.036;73.312;2023-01-28T07:10:11;-6.35;71.92
73509;SHT30;61750;55.036;73.312;2023-01-28T07:12:37;-6.19;71.34
73509;SHT30;61750;55.036;73.312;2023-01-28T07:15:06;-6.05;71.04
73509;SHT30;61750;55.036;73.312;2023-01-28T07:17:32;-5.95;70.26
73509;SHT30;61750;55.036;73.312;2023-01-28T07:20:09;-5.81;69.85
73509;SHT30;61750;55.036;73.312;2023-01-28T07:22:37;-5.67;69.59
73509;SHT30;61750;55.036;73.312;2023-01-28T07:25:04;-5.66;69.18
73509;SHT30;61750;55.036;73.312;2023-01-28T07:27:30;-5.53;69.30
73509;SHT30;61750;55.036;73.312;2023-01-28T07:29:59;-5.54;68.69
73509;SHT30;61750;55.036;73.312;2023-01-28T07:35:44;-5.36;68.16
73509;SHT30;61750;55.036;73.312;2023-01-28T07:38:11;-5.33;67.84
73509;SHT30;61750;55.036;73.312;2023-01-28T07:40:37;-5.30;67.86
73509;SHT30;61750;55.036;73.312;2023-01-28T07:43:03;-5.12;67.63
73509;SHT30;61750;55.036;73.312;2023-01-28T07:45:36;-5.12;67.04
73509;SHT30;61750;55.036;73.312;2023-01-28T07:48:03;-5.10;66.90
73509;SHT30;61750;55.036;73.312;2023-01-28T07:50:31;-5.16;66.88
73509;SHT30;61750;55.036;73.312;2023-01-28T07:53:00;-5.05;67.08
73509;SHT30;61750;55.036;73.312;2023-01-28T07:55:29;-4.91;66.62
73509;SHT30;61750;55.036;73.312;2023-01-28T07:57:56;-4.95;66.56
73509;SHT30;61750;55.036;73.312;2023-01-28T08:00:24;-4.93;66.53
73509;SHT30;61750;55.036;73.312;2023-01-28T08:02:56;-4.95;66.49
73509;SHT30;61750;55.036;73.312;2023-01-28T08:05:22;-4.96;66.26
73509;SHT30;61750;55.036;73.312;2023-01-28T08:07:49;-4.95;67.09
73509;SHT30;61750;55.036;73.312;2023-01-28T08:10:25;-4.92;66.23
73509;SHT30;61750;55.036;73.312;2023-01-28T08:12:55;-4.97;66.38
73509;SHT30;61750;55.036;73.312;2023-01-28T08:15:23;-5.05;66.61
73509;SHT30;61750;55.036;73.312;2023-01-28T08:17:50;-4.95;66.41
73509;SHT30;61750;55.036;73.312;2023-01-28T08:20:26;-4.81;66.72
73509;SHT30;61750;55.036;73.312;2023-01-28T08:22:53;-4.65;66.73
73509;SHT30;61750;55.036;73.312;2023-01-28T08:25:23;-4.65;65.87
73509;SHT30;61750;55.036;73.312;2023-01-28T08:27:49;-4.62;65.84
73509;SHT30;61750;55.036;73.312;2023-01-28T08:30:15;-4.64;65.63
73509;SHT30;61750;55.036;73.312;2023-01-28T08:32:41;-4.93;65.62
73509;SHT30;61750;55.036;73.312;2023-01-28T08:35:13;-4.89;66.44
73509;SHT30;61750;55.036;73.312;2023-01-28T08:37:43;-4.92;65.86
73509;SHT30;61750;55.036;73.312;2023-01-28T08:40:19;-4.97;66.10
73509;SHT30;61750;55.036;73.312;2023-01-28T08:42:46;-4.82;66.21
73509;SHT30;61750;55.036;73.312;2023-01-28T08:45:13;-4.96;65.98
73509;SHT30;61750;55.036;73.312;2023-01-28T08:47:52;-4.82;66.59
73509;SHT30;61750;55.036;73.312;2023-01-28T08:50:19;-4.97;65.93
73509;SHT30;61750;55.036;73.312;2023-01-28T08:52:46;-4.93;66.21
73509;SHT30;61750;55.036;73.312;2023-01-28T08:55:17;-4.85;66.30
73509;SHT30;61750;55.036;73.312;2023-01-28T08:57:43;-4.83;65.86
73509;SHT30;61750;55.036;73.312;2023-01-28T09:00:10;-4.89;65.44
73509;SHT30;61750;55.036;73.312;2023-01-28T09:02:41;-5.13;66.03
73509;SHT30;61750;55.036;73.312;2023-01-28T09:05:12;-5.09;65.98
73509;SHT30;61750;55.036;73.312;2023-01-28T09:07:39;-5.34;66.52
73509;SHT30;61750;55.036;73.312;2023-01-28T09:10:05;-5.40;66.59
73509;SHT30;61750;55.036;73.312;2023-01-28T09:12:34;-5.50;66.83
73509;SHT30;61750;55.036;73.312;2023-01-28T09:15:01;-5.51;67.21
73509;SHT30;61750;55.036;73.312;2023-01-28T09:17:27;-5.70;66.77
73509;SHT30;61750;55.036;73.312;2023-01-28T09:19:53;-5.78;67.20
73509;SHT30;61750;55.036;73.312;2023-01-28T09:22:26;-5.80;67.58
73509;SHT30;61750;55.036;73.312;2023-01-28T09:24:55;-5.80;68.22
73509;SHT30;61750;55.036;73.312;2023-01-28T09:27:21;-5.77;67.30
73509;SHT30;61750;55.036;73.312;2023-01-28T09:29:47;-5.88;67.85
73509;SHT30;61750;55.036;73.312;2023-01-28T09:32:26;-5.88;67.39
73509;SHT30;61750;55.036;73.312;2023-01-28T09:34:52;-6.06;67.56
73509;SHT30;61750;55.036;73.312;2023-01-28T09:37:26;-6.09;68.13
73509;SHT30;61750;55.036;73.312;2023-01-28T09:39:52;-6.09;67.87
73509;SHT30;61750;55.036;73.312;2023-01-28T09:47:37;-6.18;68.42
73509;SHT30;61750;55.036;73.312;2023-01-28T09:53:09;-6.19;68.38
73509;SHT30;61750;55.036;73.312;2023-01-28T09:55:49;-6.35;68.71
73509;SHT30;61750;55.036;73.312;2023-01-28T09:58:16;-6.43;68.61
73509;SHT30;61750;55.036;73.312;2023-01-28T10:00:49;-6.37;69.36
73509;SHT30;61750;55.036;73.312;2023-01-28T10:06:10;-6.36;69.32
73509;SHT30;61750;55.036;73.312;2023-01-28T10:16:08;-6.59;70.38
73509;SHT30;61750;55.036;73.312;2023-01-28T10:21:09;-6.75;70.30
73509;SHT30;61750;55.036;73.312;2023-01-28T10:24:14;-6.79;70.17
73509;SHT30;61750;55.036;73.312;2023-01-28T10:26:34;-6.91;70.14
73509;SHT30;61750;55.036;73.312;2023-01-28T10:29:13;-6.94;70.43
73509;SHT30;61750;55.036;73.312;2023-01-28T10:31:43;-6.91;70.54
73509;SHT30;61750;55.036;73.312;2023-01-28T10:34:12;-6.84;70.69
73509;SHT30;61750;55.036;73.312;2023-01-28T10:36:38;-6.91;70.52
73509;SHT30;61750;55.036;73.312;2023-01-28T10:39:04;-6.94;70.76
73509;SHT30;61750;55.036;73.312;2023-01-28T10:41:37;-7.01;70.44
73509;SHT30;61750;55.036;73.312;2023-01-28T10:44:09;-7.08;70.23
73509;SHT30;61750;55.036;73.312;2023-01-28T10:46:38;-7.08;70.70
73509;SHT30;61750;55.036;73.312;2023-01-28T10:49:27;-7.17;70.68
73509;SHT30;61750;55.036;73.312;2023-01-28T10:52:26;-7.17;71.06
73509;SHT30;61750;55.036;73.312;2023-01-28T10:55:03;-7.17;71.12
73509;SHT30;61750;55.036;73.312;2023-01-28T10:57:35;-7.18;71.14
73509;SHT30;61750;55.036;73.312;2023-01-28T11:02:55;-7.25;71.19
73509;SHT30;61750;55.036;73.312;2023-01-28T11:05:22;-7.30;71.39
73509;SHT30;61750;55.036;73.312;2023-01-28T11:08:01;-7.30;71.46
73509;SHT30;61750;55.036;73.312;2023-01-28T11:10:37;-7.32;71.73
73509;SHT30;61750;55.036;73.312;2023-01-28T11:13:05;-7.30;71.56
73509;SHT30;61750;55.036;73.312;2023-01-28T11:15:36;-7.25;71.54
73509;SHT30;61750;55.036;73.312;2023-01-28T11:18:07;-7.25;71.51
73509;SHT30;61750;55.036;73.312;2023-01-28T11:20:52;-7.30;71.72
73509;SHT30;61750;55.036;73.312;2023-01-28T11:23:21;-7.38;71.65
73509;SHT30;61750;55.036;73.312;2023-01-28T11:26:08;-7.38;72.51
73509;SHT30;61750;55.036;73.312;2023-01-28T11:28:49;-7.41;72.02
73509;SHT30;61750;55.036;73.312;2023-01-28T11:31:16;-7.38;72.15
73509;SHT30;61750;55.036;73.312;2023-01-28T11:33:56;-7.38;72.25
73509;SHT30;61750;55.036;73.312;2023-01-28T11:36:23;-7.31;72.35
73509;SHT30;61750;55.036;73.312;2023-01-28T11:38:51;-7.38;72.20
73509;SHT30;61750;55.036;73.312;2023-01-28T11:43:58;-7.44;72.59
73509;SHT30;61750;55.036;73.312;2023-01-28T11:46:42;-7.39;72.60
73509;SHT30;61750;55.036;73.312;2023-01-28T11:49:21;-7.36;72.73
73509;SHT30;61750;55.036;73.312;2023-01-28T12:08:57;-7.39;72.94
73509;SHT30;61750;55.036;73.312;2023-01-28T12:11:50;-7.38;72.95
73509;SHT30;61750;55.036;73.312;2023-01-28T12:17:45;-7.27;73.13
73509;SHT30;61750;55.036;73.312;2023-01-28T12:22:59;-7.36;73.44
73509;SHT30;61750;55.036;73.312;2023-01-28T12:25:47;-7.34;73.56
73509;SHT30;61750;55.036;73.312;2023-01-28T12:28:22;-7.31;73.39
73509;SHT30;61750;55.036;73.312;2023-01-28T12:31:25;-7.35;73.19
73509;SHT30;61750;55.036;73.312;2023-01-28T12:42:29;-7.56;73.98
73509;SHT30;61750;55.036;73.312;2023-01-28T12:45:01;-7.58;74.10
73509;SHT30;61750;55.036;73.312;2023-01-28T12:47:33;-7.56;74.15
73509;SHT30;61750;55.036;73.312;2023-01-28T12:50:21;-7.54;74.12
73509;SHT30;61750;55.036;73.312;2023-01-28T12:52:54;-7.45;74.27
73509;SHT30;61750;55.036;73.312;2023-01-28T12:58:12;-7.46;74.18
73509;SHT30;61750;55.036;73.312;2023-01-28T13:00:47;-7.42;74.44
73509;SHT30;61750;55.036;73.312;2023-01-28T13:03:26;-7.39;73.92
73509;SHT30;61750;55.036;73.312;2023-01-28T13:05:58;-7.45;73.65
73509;SHT30;61750;55.036;73.312;2023-01-28T13:08:27;-7.48;74.00
73509;SHT30;61750;55.036;73.312;2023-01-28T13:10:54;-7.46;74.01
73509;SHT30;61750;55.036;73.312;2023-01-28T13:13:26;-7.42;74.11
73509;SHT30;61750;55.036;73.312;2023-01-28T13:15:54;-7.44;73.88
73509;SHT30;61750;55.036;73.312;2023-01-28T13:18:28;-7.46;74.18
73509;SHT30;61750;55.036;73.312;2023-01-28T13:20:54;-7.46;74.03
73509;SHT30;61750;55.036;73.312;2023-01-28T13:23:25;-7.44;74.33
73509;SHT30;61750;55.036;73.312;2023-01-28T13:25:52;-7.48;73.85
73509;SHT30;61750;55.036;73.312;2023-01-28T13:28:25;-7.52;74.00
73509;SHT30;61750;55.036;73.312;2023-01-28T13:31:07;-7.51;74.24
73509;SHT30;61750;55.036;73.312;2023-01-28T13:33:35;-7.46;74.34
73509;SHT30;61750;55.036;73.312;2023-01-28T13:38:42;-7.44;74.25
73509;SHT30;61750;55.036;73.312;2023-01-28T13:41:08;-7.45;74.24
73509;SHT30;61750;55.036;73.312;2023-01-28T13:43:40;-7.44;74.40
73509;SHT30;61750;55.036;73.312;2023-01-28T13:46:28;-7.46;74.23
73509;SHT30;61750;55.036;73.312;2023-01-28T13:48:59;-7.46;74.31
73509;SHT30;61750;55.036;73.312;2023-01-28T13:51:29;-7.45;74.38
73509;SHT30;61750;55.036;73.312;2023-01-28T13:54:09;-7.41;74.25
73509;SHT30;61750;55.036;73.312;2023-01-28T14:13:11;-7.30;73.96
73509;SHT30;61750;55.036;73.312;2023-01-28T14:15:48;-7.24;74.14
73509;SHT30;61750;55.036;73.312;2023-01-28T14:18:22;-7.25;73.75
73509;SHT30;61750;55.036;73.312;2023-01-28T14:20:49;-7.27;73.61
73509;SHT30;61750;55.036;73.312;2023-01-28T14:23:25;-7.27;73.82
73509;SHT30;61750;55.036;73.312;2023-01-28T14:33:44;-7.28;74.03
73509;SHT30;61750;55.036;73.312;2023-01-28T14:36:10;-7.25;73.79
73509;SHT30;61750;55.036;73.312;2023-01-28T14:38:40;-7.27;74.12
73509;SHT30;61750;55.036;73.312;2023-01-28T14:41:24;-7.21;74.28
73509;SHT30;61750;55.036;73.312;2023-01-28T14:43:51;-7.18;74.37
73509;SHT30;61750;55.036;73.312;2023-01-28T14:46:30;-7.18;74.06
73509;SHT30;61750;55.036;73.312;2023-01-28T14:51:44;-7.20;74.25
73509;SHT30;61750;55.036;73.312;2023-01-28T14:54:28;-7.15;74.34
73509;SHT30;61750;55.036;73.312;2023-01-28T15:02:27;-7.14;74.14
73509;SHT30;61750;55.036;73.312;2023-01-28T15:04:54;-7.17;74.08
73509;SHT30;61750;55.036;73.312;2023-01-28T15:07:26;-7.15;74.28
73509;SHT30;61750;55.036;73.312;2023-01-28T15:10:03;-7.12;74.24
73509;SHT30;61750;55.036;73.312;2023-01-28T15:12:40;-7.18;74.25
73509;SHT30;61750;55.036;73.312;2023-01-28T15:15:19;-7.17;74.50
73509;SHT30;61750;55.036;73.312;2023-01-28T15:17:57;-7.22;74.39
73509;SHT30;61750;55.036;73.312;2023-01-28T15:20:25;-7.15;74.85
73509;SHT30;61750;55.036;73.312;2023-01-28T15:22:51;-7.20;74.53
73509;SHT30;61750;55.036;73.312;2023-01-28T15:25:18;-7.21;74.66
73509;SHT30;61750;55.036;73.312;2023-01-28T15:27:45;-7.21;74.80
73509;SHT30;61750;55.036;73.312;2023-01-28T15:30:19;-7.17;74.83
73509;SHT30;61750;55.036;73.312;2023-01-28T15:32:45;-7.17;74.91
73509;SHT30;61750;55.036;73.312;2023-01-28T15:35:21;-7.14;74.95
73509;SHT30;61750;55.036;73.312;2023-01-28T15:37:47;-7.10;75.08
73509;SHT30;61750;55.036;73.312;2023-01-28T15:40:16;-7.17;74.92
73509;SHT30;61750;55.036;73.312;2023-01-28T15:42:53;-7.15;75.36
73509;SHT30;61750;55.036;73.312;2023-01-28T15:45:20;-7.12;75.27
73509;SHT30;61750;55.036;73.312;2023-01-28T15:47:47;-7.14;75.20
73509;SHT30;61750;55.036;73.312;2023-01-28T15:50:21;-7.15;75.37
73509;SHT30;61750;55.036;73.312;2023-01-28T15:52:48;-7.14;75.37
73509;SHT30;61750;55.036;73.312;2023-01-28T15:55:33;-7.14;75.39
73509;SHT30;61750;55.036;73.312;2023-01-28T15:58:15;-7.11;75.63
73509;SHT30;61750;55.036;73.312;2023-01-28T16:00:42;-7.14;75.66
73509;SHT30;61750;55.036;73.312;2023-01-28T16:03:08;-7.14;75.70
73509;SHT30;61750;55.036;73.312;2023-01-28T16:05:35;-7.12;76.01
73509;SHT30;61750;55.036;73.312;2023-01-28T16:08:55;-7.08;75.93
73509;SHT30;61750;55.036;73.312;2023-01-28T16:11:02;-7.07;75.99
73509;SHT30;61750;55.036;73.312;2023-01-28T16:13:30;-7.07;76.03
73509;SHT30;61750;55.036;73.312;2023-01-28T16:15:57;-7.12;76.28
73509;SHT30;61750;55.036;73.312;2023-01-28T16:21:00;-7.15;76.60
73509;SHT30;61750;55.036;73.312;2023-01-28T16:23:27;-7.15;76.86
73509;SHT30;61750;55.036;73.312;2023-01-28T16:26:00;-7.12;76.94
73509;SHT30;61750;55.036;73.312;2023-01-28T16:28:26;-7.08;77.08
73509;SHT30;61750;55.036;73.312;2023-01-28T16:30:58;-7.10;77.03
73509;SHT30;61750;55.036;73.312;2023-01-28T16:33:24;-7.10;77.22
73509;SHT30;61750;55.036;73.312;2023-01-28T16:35:50;-7.10;77.26
73509;SHT30;61750;55.036;73.312;2023-01-28T16:38:17;-7.08;77.44
73509;SHT30;61750;55.036;73.312;2023-01-28T16:40:53;-7.03;77.58
73509;SHT30;61750;55.036;73.312;2023-01-28T16:43:19;-7.00;77.47
73509;SHT30;61750;55.036;73.312;2023-01-28T16:45:45;-7.01;77.58
73509;SHT30;61750;55.036;73.312;2023-01-28T16:48:11;-7.04;77.53
73509;SHT30;61750;55.036;73.312;2023-01-28T16:50:41;-7.01;77.73
73509;SHT30;61750;55.036;73.312;2023-01-28T16:53:22;-6.94;77.70
73509;SHT30;61750;55.036;73.312;2023-01-28T16:55:54;-6.97;77.43
73509;SHT30;61750;55.036;73.312;2023-01-28T16:58:21;-7.04;77.76
73509;SHT30;61750;55.036;73.312;2023-01-28T17:00:48;-7.03;77.85
73509;SHT30;61750;55.036;73.312;2023-01-28T17:03:14;-6.96;77.82
73509;SHT30;61750;55.036;73.312;2023-01-28T17:05:40;-6.93;77.75
73509;SHT30;61750;55.036;73.312;2023-01-28T17:08:08;-6.93;77.61
73509;SHT30;61750;55.036;73.312;2023-01-28T17:10:34;-6.93;77.62
73509;SHT30;61750;55.036;73.312;2023-01-28T17:13:00;-6.91;77.66
73509;SHT30;61750;55.036;73.312;2023-01-28T17:15:34;-6.90;77.73
73509;SHT30;61750;55.036;73.312;2023-01-28T17:18:00;-6.94;77.54
73509;SHT30;61750;55.036;73.312;2023-01-28T17:20:28;-6.96;77.65
73509;SHT30;61750;55.036;73.312;2023-01-28T17:23:07;-6.91;77.83
73509;SHT30;61750;55.036;73.312;2023-01-28T17:25:43;-6.96;77.60
73509;SHT30;61750;55.036;73.312;2023-01-28T17:28:09;-6.99;77.89
73509;SHT30;61750;55.036;73.312;2023-01-28T17:30:39;-7.05;77.78
73509;SHT30;61750;55.036;73.312;2023-01-28T17:33:10;-7.05;77.96
73509;SHT30;61750;55.036;73.312;2023-01-28T17:35:44;-7.01;78.05
73509;SHT30;61750;55.036;73.312;2023-01-28T17:38:10;-6.97;77.74
73509;SHT30;61750;55.036;73.312;2023-01-28T17:40:36;-6.94;77.79
73509;SHT30;61750;55.036;73.312;2023-01-28T17:43:02;-6.91;77.46
73509;SHT30;61750;55.036;73.312;2023-01-28T17:45:31;-6.94;77.38
73509;SHT30;61750;55.036;73.312;2023-01-28T17:47:57;-6.94;77.63
73509;SHT30;61750;55.036;73.312;2023-01-28T17:50:28;-6.99;77.62
73509;SHT30;61750;55.036;73.312;2023-01-28T17:52:55;-7.00;77.70
73509;SHT30;61750;55.036;73.312;2023-01-28T17:55:24;-7.00;77.74
73509;SHT30;61750;55.036;73.312;2023-01-28T17:57:50;-6.99;77.62
73509;SHT30;61750;55.036;73.312;2023-01-28T18:00:21;-6.93;77.74